This is the latest recevied weather packets stored in our database for station/object PY1LEO-13. If no packets are shown the sender has not sent any weather packets the latest 10 day(s).
| Time | Temp. | Humidity | Pressure | Rain* | Wind** | Luminosity | Snow |
|---|---|---|---|---|---|---|---|
| 1777398663 | 28.89° C | 67% | 1014.3 hPa | - | - | - | - |
| 1777398359 | 28.33° C | 68% | 1014.3 hPa | - | - | - | - |
| 1777398059 | 27.22° C | 73% | 1014.3 hPa | - | - | - | - |
| 1777397759 | 27.22° C | 73% | 1014.3 hPa | - | - | - | - |
| 1777397459 | 27.78° C | 72% | 1014.4 hPa | - | - | - | - |
| 1777397159 | 27.78° C | 72% | 1014.5 hPa | - | - | - | - |
| 1777396859 | 27.22° C | 73% | 1014.5 hPa | - | - | - | - |
| 1777396559 | 27.22° C | 74% | 1014.6 hPa | - | - | - | - |
| 1777396259 | 27.22° C | 74% | 1014.6 hPa | - | - | - | - |
| 1777395659 | 27.22° C | 74% | 1014.6 hPa | - | - | - | - |
| 1777395359 | 27.22° C | 74% | 1014.7 hPa | - | - | - | - |
| 1777395059 | 27.22° C | 73% | 1014.8 hPa | - | - | - | - |
| 1777394759 | 27.22° C | 73% | 1014.9 hPa | - | - | - | - |
| 1777394459 | 27.22° C | 73% | 1014.9 hPa | - | - | - | - |
| 1777394159 | 26.67° C | 74% | 1015 hPa | - | - | - | - |
| 1777393859 | 27.78° C | 72% | 1015.1 hPa | - | - | - | - |
| 1777393259 | 27.22° C | 72% | 1015.2 hPa | - | - | - | - |
| 1777392959 | 27.22° C | 72% | 1015.2 hPa | - | - | - | - |
| 1777392659 | 27.78° C | 71% | 1015.3 hPa | - | - | - | - |
| 1777392359 | 27.22° C | 73% | 1015.4 hPa | - | - | - | - |
| 1777392059 | 27.78° C | 72% | 1015.5 hPa | - | - | - | - |
| 1777391759 | 27.22° C | 73% | 1015.5 hPa | - | - | - | - |
| 1777391459 | 27.22° C | 73% | 1015.6 hPa | - | - | - | - |
| 1777391159 | 26.67° C | 74% | 1015.7 hPa | - | - | - | - |
| 1777390859 | 27.22° C | 73% | 1015.8 hPa | - | - | - | - |
* Rain since midnight (hover to see other rain measurements)
** Current wind speed in m/s (hover to see current wind gust speed)